sensor_id;sensor_type;location;lat;lon;timestamp;temperature;humidity
5276;DHT22;2661;50.786;12.728;2023-09-12T00:00:35;14.60;1.00
5276;DHT22;2661;50.786;12.728;2023-09-12T00:03:02;14.60;1.00
5276;DHT22;2661;50.786;12.728;2023-09-12T00:05:29;14.60;1.00
5276;DHT22;2661;50.786;12.728;2023-09-12T00:07:56;14.60;1.00
5276;DHT22;2661;50.786;12.728;2023-09-12T00:10:22;14.60;1.00
5276;DHT22;2661;50.786;12.728;2023-09-12T00:12:50;14.50;1.00
5276;DHT22;2661;50.786;12.728;2023-09-12T00:15:16;14.50;1.00
5276;DHT22;2661;50.786;12.728;2023-09-12T00:17:43;14.50;1.00
5276;DHT22;2661;50.786;12.728;2023-09-12T00:20:10;14.50;1.00
5276;DHT22;2661;50.786;12.728;2023-09-12T00:22:37;14.50;1.00
5276;DHT22;2661;50.786;12.728;2023-09-12T00:25:04;14.50;1.00
5276;DHT22;2661;50.786;12.728;2023-09-12T00:27:31;14.50;1.00
5276;DHT22;2661;50.786;12.728;2023-09-12T00:29:57;14.40;1.00
5276;DHT22;2661;50.786;12.728;2023-09-12T00:32:24;14.40;1.00
5276;DHT22;2661;50.786;12.728;2023-09-12T00:34:51;14.40;1.00
5276;DHT22;2661;50.786;12.728;2023-09-12T00:37:17;14.30;1.00
5276;DHT22;2661;50.786;12.728;2023-09-12T00:39:44;14.30;1.00
5276;DHT22;2661;50.786;12.728;2023-09-12T00:42:11;14.30;1.00
5276;DHT22;2661;50.786;12.728;2023-09-12T00:44:37;14.30;1.00
5276;DHT22;2661;50.786;12.728;2023-09-12T00:47:04;14.20;1.00
5276;DHT22;2661;50.786;12.728;2023-09-12T00:49:32;14.20;1.00
5276;DHT22;2661;50.786;12.728;2023-09-12T00:51:58;14.20;1.00
5276;DHT22;2661;50.786;12.728;2023-09-12T00:54:25;14.20;1.00
5276;DHT22;2661;50.786;12.728;2023-09-12T00:56:52;14.20;1.00
5276;DHT22;2661;50.786;12.728;2023-09-12T00:59:19;14.20;1.00
5276;DHT22;2661;50.786;12.728;2023-09-12T01:01:46;14.20;1.00
5276;DHT22;2661;50.786;12.728;2023-09-12T01:04:13;14.10;1.00
5276;DHT22;2661;50.786;12.728;2023-09-12T01:06:59;14.10;1.00
5276;DHT22;2661;50.786;12.728;2023-09-12T01:09:25;14.10;1.00
5276;DHT22;2661;50.786;12.728;2023-09-12T01:11:52;14.10;1.00
5276;DHT22;2661;50.786;12.728;2023-09-12T01:14:19;14.10;1.00
5276;DHT22;2661;50.786;12.728;2023-09-12T01:16:45;14.10;1.00
5276;DHT22;2661;50.786;12.728;2023-09-12T01:19:12;14.10;1.00
5276;DHT22;2661;50.786;12.728;2023-09-12T01:21:48;14.10;1.00
5276;DHT22;2661;50.786;12.728;2023-09-12T01:27:17;14.10;1.00
5276;DHT22;2661;50.786;12.728;2023-09-12T01:29:45;14.00;1.00
5276;DHT22;2661;50.786;12.728;2023-09-12T01:32:13;14.00;1.00
5276;DHT22;2661;50.786;12.728;2023-09-12T01:34:40;14.00;1.00
5276;DHT22;2661;50.786;12.728;2023-09-12T01:37:07;14.00;1.00
5276;DHT22;2661;50.786;12.728;2023-09-12T01:39:34;14.00;1.00
5276;DHT22;2661;50.786;12.728;2023-09-12T01:42:00;14.00;1.00
5276;DHT22;2661;50.786;12.728;2023-09-12T01:44:27;14.00;1.00
5276;DHT22;2661;50.786;12.728;2023-09-12T01:46:54;14.00;1.00
5276;DHT22;2661;50.786;12.728;2023-09-12T01:49:23;14.00;1.00
5276;DHT22;2661;50.786;12.728;2023-09-12T01:51:51;14.00;1.00
5276;DHT22;2661;50.786;12.728;2023-09-12T01:54:18;14.00;1.00
5276;DHT22;2661;50.786;12.728;2023-09-12T01:56:45;13.90;1.00
5276;DHT22;2661;50.786;12.728;2023-09-12T01:59:12;13.90;1.00
5276;DHT22;2661;50.786;12.728;2023-09-12T02:01:39;13.90;1.00
5276;DHT22;2661;50.786;12.728;2023-09-12T02:04:06;13.90;1.00
5276;DHT22;2661;50.786;12.728;2023-09-12T02:06:35;13.90;1.00
5276;DHT22;2661;50.786;12.728;2023-09-12T02:09:02;13.90;1.00
5276;DHT22;2661;50.786;12.728;2023-09-12T02:11:29;13.90;1.00
5276;DHT22;2661;50.786;12.728;2023-09-12T02:13:55;13.90;1.00
5276;DHT22;2661;50.786;12.728;2023-09-12T02:16:22;13.90;1.00
5276;DHT22;2661;50.786;12.728;2023-09-12T02:18:49;13.90;1.00
5276;DHT22;2661;50.786;12.728;2023-09-12T02:21:15;13.90;1.00
5276;DHT22;2661;50.786;12.728;2023-09-12T02:23:42;13.80;1.00
5276;DHT22;2661;50.786;12.728;2023-09-12T02:26:09;13.80;1.00
5276;DHT22;2661;50.786;12.728;2023-09-12T02:28:35;13.80;1.00
5276;DHT22;2661;50.786;12.728;2023-09-12T02:31:02;13.80;1.00
5276;DHT22;2661;50.786;12.728;2023-09-12T02:33:28;13.80;1.00
5276;DHT22;2661;50.786;12.728;2023-09-12T02:35:55;13.80;1.00
5276;DHT22;2661;50.786;12.728;2023-09-12T02:38:22;13.80;1.00
5276;DHT22;2661;50.786;12.728;2023-09-12T02:40:49;13.70;1.00
5276;DHT22;2661;50.786;12.728;2023-09-12T02:43:15;13.70;1.00
5276;DHT22;2661;50.786;12.728;2023-09-12T02:45:42;13.70;1.00
5276;DHT22;2661;50.786;12.728;2023-09-12T02:48:09;13.70;1.00
5276;DHT22;2661;50.786;12.728;2023-09-12T02:50:35;13.70;1.00
5276;DHT22;2661;50.786;12.728;2023-09-12T02:53:02;13.70;1.00
5276;DHT22;2661;50.786;12.728;2023-09-12T02:55:29;13.70;1.00
5276;DHT22;2661;50.786;12.728;2023-09-12T02:57:55;13.60;1.00
5276;DHT22;2661;50.786;12.728;2023-09-12T03:00:24;13.60;1.00
5276;DHT22;2661;50.786;12.728;2023-09-12T03:02:51;13.60;1.00
5276;DHT22;2661;50.786;12.728;2023-09-12T03:05:18;13.60;1.00
5276;DHT22;2661;50.786;12.728;2023-09-12T03:07:44;13.60;1.00
5276;DHT22;2661;50.786;12.728;2023-09-12T03:10:11;13.60;1.00
5276;DHT22;2661;50.786;12.728;2023-09-12T03:12:37;13.60;1.00
5276;DHT22;2661;50.786;12.728;2023-09-12T03:15:04;13.60;1.00
5276;DHT22;2661;50.786;12.728;2023-09-12T03:17:34;13.60;1.00
5276;DHT22;2661;50.786;12.728;2023-09-12T03:20:01;13.60;1.00
5276;DHT22;2661;50.786;12.728;2023-09-12T03:22:27;13.60;1.00
5276;DHT22;2661;50.786;12.728;2023-09-12T03:24:54;13.60;1.00
5276;DHT22;2661;50.786;12.728;2023-09-12T03:27:21;13.60;1.00
5276;DHT22;2661;50.786;12.728;2023-09-12T03:29:47;13.50;1.00
5276;DHT22;2661;50.786;12.728;2023-09-12T03:32:14;13.50;1.00
5276;DHT22;2661;50.786;12.728;2023-09-12T03:34:40;13.50;1.00
5276;DHT22;2661;50.786;12.728;2023-09-12T03:37:07;13.50;1.00
5276;DHT22;2661;50.786;12.728;2023-09-12T03:39:34;13.50;1.00
5276;DHT22;2661;50.786;12.728;2023-09-12T03:42:01;13.50;1.00
5276;DHT22;2661;50.786;12.728;2023-09-12T03:44:28;13.50;1.00
5276;DHT22;2661;50.786;12.728;2023-09-12T03:46:54;13.40;1.00
5276;DHT22;2661;50.786;12.728;2023-09-12T03:49:22;13.40;1.00
5276;DHT22;2661;50.786;12.728;2023-09-12T03:51:48;13.40;1.00
5276;DHT22;2661;50.786;12.728;2023-09-12T03:54:15;13.40;1.00
5276;DHT22;2661;50.786;12.728;2023-09-12T03:56:42;13.40;1.00
5276;DHT22;2661;50.786;12.728;2023-09-12T03:59:11;13.40;1.00
5276;DHT22;2661;50.786;12.728;2023-09-12T04:01:38;13.40;1.00
5276;DHT22;2661;50.786;12.728;2023-09-12T04:04:05;13.40;1.00
5276;DHT22;2661;50.786;12.728;2023-09-12T04:06:32;13.40;1.00
5276;DHT22;2661;50.786;12.728;2023-09-12T04:08:58;13.40;1.00
5276;DHT22;2661;50.786;12.728;2023-09-12T04:11:25;13.40;1.00
5276;DHT22;2661;50.786;12.728;2023-09-12T04:14:11;13.40;1.00
5276;DHT22;2661;50.786;12.728;2023-09-12T04:16:38;13.40;1.00
5276;DHT22;2661;50.786;12.728;2023-09-12T04:19:05;13.40;1.00
5276;DHT22;2661;50.786;12.728;2023-09-12T04:21:31;13.30;1.00
5276;DHT22;2661;50.786;12.728;2023-09-12T04:23:58;13.30;1.00
5276;DHT22;2661;50.786;12.728;2023-09-12T04:26:25;13.30;1.00
5276;DHT22;2661;50.786;12.728;2023-09-12T04:28:51;13.30;1.00
5276;DHT22;2661;50.786;12.728;2023-09-12T04:31:18;13.30;1.00
5276;DHT22;2661;50.786;12.728;2023-09-12T04:33:45;13.30;1.00
5276;DHT22;2661;50.786;12.728;2023-09-12T04:36:11;13.30;1.00
5276;DHT22;2661;50.786;12.728;2023-09-12T04:38:38;13.30;1.00
5276;DHT22;2661;50.786;12.728;2023-09-12T04:41:05;13.30;1.00
5276;DHT22;2661;50.786;12.728;2023-09-12T04:43:32;13.30;1.00
5276;DHT22;2661;50.786;12.728;2023-09-12T04:45:59;13.30;1.00
5276;DHT22;2661;50.786;12.728;2023-09-12T04:48:26;13.30;1.00
5276;DHT22;2661;50.786;12.728;2023-09-12T04:50:53;13.30;1.00
5276;DHT22;2661;50.786;12.728;2023-09-12T04:53:19;13.30;1.00
5276;DHT22;2661;50.786;12.728;2023-09-12T04:55:46;13.30;1.00
5276;DHT22;2661;50.786;12.728;2023-09-12T04:58:13;13.30;1.00
5276;DHT22;2661;50.786;12.728;2023-09-12T05:00:39;13.30;1.00
5276;DHT22;2661;50.786;12.728;2023-09-12T05:03:06;13.30;1.00
5276;DHT22;2661;50.786;12.728;2023-09-12T05:05:34;13.40;1.00
5276;DHT22;2661;50.786;12.728;2023-09-12T05:08:01;13.50;1.00
5276;DHT22;2661;50.786;12.728;2023-09-12T05:10:28;13.50;1.00
5276;DHT22;2661;50.786;12.728;2023-09-12T05:12:55;13.50;1.00
5276;DHT22;2661;50.786;12.728;2023-09-12T05:15:22;13.50;1.00
5276;DHT22;2661;50.786;12.728;2023-09-12T05:17:48;13.50;1.00
5276;DHT22;2661;50.786;12.728;2023-09-12T05:20:15;13.50;1.00
5276;DHT22;2661;50.786;12.728;2023-09-12T05:22:41;13.60;1.00
5276;DHT22;2661;50.786;12.728;2023-09-12T05:25:08;13.60;1.00
5276;DHT22;2661;50.786;12.728;2023-09-12T05:27:35;13.60;1.00
5276;DHT22;2661;50.786;12.728;2023-09-12T05:30:02;13.60;1.00
5276;DHT22;2661;50.786;12.728;2023-09-12T05:32:29;13.70;1.00
5276;DHT22;2661;50.786;12.728;2023-09-12T05:34:56;13.80;1.00
5276;DHT22;2661;50.786;12.728;2023-09-12T05:37:40;13.80;1.00
5276;DHT22;2661;50.786;12.728;2023-09-12T05:40:07;13.90;1.00
5276;DHT22;2661;50.786;12.728;2023-09-12T05:42:34;13.90;1.00
5276;DHT22;2661;50.786;12.728;2023-09-12T05:45:01;14.00;1.00
5276;DHT22;2661;50.786;12.728;2023-09-12T05:47:27;14.00;1.00
5276;DHT22;2661;50.786;12.728;2023-09-12T05:49:54;14.10;1.00
5276;DHT22;2661;50.786;12.728;2023-09-12T05:52:22;14.10;1.00
5276;DHT22;2661;50.786;12.728;2023-09-12T05:54:48;14.10;1.00
5276;DHT22;2661;50.786;12.728;2023-09-12T05:57:15;14.20;1.00
5276;DHT22;2661;50.786;12.728;2023-09-12T05:59:42;14.20;1.00
5276;DHT22;2661;50.786;12.728;2023-09-12T06:02:08;14.30;1.00
5276;DHT22;2661;50.786;12.728;2023-09-12T06:04:36;14.30;1.00
5276;DHT22;2661;50.786;12.728;2023-09-12T06:07:03;14.40;1.00
5276;DHT22;2661;50.786;12.728;2023-09-12T06:09:30;14.40;1.00
5276;DHT22;2661;50.786;12.728;2023-09-12T06:11:56;14.50;1.00
5276;DHT22;2661;50.786;12.728;2023-09-12T06:14:23;14.60;1.00
5276;DHT22;2661;50.786;12.728;2023-09-12T06:16:49;14.60;1.00
5276;DHT22;2661;50.786;12.728;2023-09-12T06:19:16;14.70;1.00
5276;DHT22;2661;50.786;12.728;2023-09-12T06:21:46;14.80;1.00
5276;DHT22;2661;50.786;12.728;2023-09-12T06:24:14;14.80;1.00
5276;DHT22;2661;50.786;12.728;2023-09-12T06:26:41;14.90;1.00
5276;DHT22;2661;50.786;12.728;2023-09-12T06:29:08;15.00;1.00
5276;DHT22;2661;50.786;12.728;2023-09-12T06:31:35;15.10;1.00
5276;DHT22;2661;50.786;12.728;2023-09-12T06:34:02;15.10;1.00
5276;DHT22;2661;50.786;12.728;2023-09-12T06:36:29;15.20;1.00
5276;DHT22;2661;50.786;12.728;2023-09-12T06:38:56;15.30;1.00
5276;DHT22;2661;50.786;12.728;2023-09-12T06:41:23;15.40;1.00
5276;DHT22;2661;50.786;12.728;2023-09-12T06:43:49;15.50;1.00
5276;DHT22;2661;50.786;12.728;2023-09-12T06:46:16;15.60;1.00
5276;DHT22;2661;50.786;12.728;2023-09-12T06:48:46;15.70;1.00
5276;DHT22;2661;50.786;12.728;2023-09-12T06:51:12;15.80;1.00
5276;DHT22;2661;50.786;12.728;2023-09-12T06:53:44;15.90;1.00
5276;DHT22;2661;50.786;12.728;2023-09-12T06:56:10;16.00;1.00
5276;DHT22;2661;50.786;12.728;2023-09-12T06:58:37;16.10;1.00
5276;DHT22;2661;50.786;12.728;2023-09-12T07:01:04;16.20;1.00
5276;DHT22;2661;50.786;12.728;2023-09-12T07:03:32;16.40;1.00
5276;DHT22;2661;50.786;12.728;2023-09-12T07:05:59;16.50;1.00
5276;DHT22;2661;50.786;12.728;2023-09-12T07:08:26;16.60;1.00
5276;DHT22;2661;50.786;12.728;2023-09-12T07:10:55;16.70;1.00
5276;DHT22;2661;50.786;12.728;2023-09-12T07:13:23;16.80;1.00
5276;DHT22;2661;50.786;12.728;2023-09-12T07:15:50;17.00;99.90
5276;DHT22;2661;50.786;12.728;2023-09-12T07:18:17;17.10;99.90
5276;DHT22;2661;50.786;12.728;2023-09-12T07:20:45;17.20;1.00
5276;DHT22;2661;50.786;12.728;2023-09-12T07:23:12;17.30;1.00
5276;DHT22;2661;50.786;12.728;2023-09-12T07:25:39;17.30;1.00
5276;DHT22;2661;50.786;12.728;2023-09-12T07:28:07;17.40;1.00
5276;DHT22;2661;50.786;12.728;2023-09-12T07:30:34;17.50;1.00
5276;DHT22;2661;50.786;12.728;2023-09-12T07:33:02;17.50;1.00
5276;DHT22;2661;50.786;12.728;2023-09-12T07:35:28;17.60;1.00
5276;DHT22;2661;50.786;12.728;2023-09-12T07:37:57;17.70;1.00
5276;DHT22;2661;50.786;12.728;2023-09-12T07:40:23;17.80;99.90
5276;DHT22;2661;50.786;12.728;2023-09-12T07:42:50;17.80;99.90
5276;DHT22;2661;50.786;12.728;2023-09-12T07:45:17;17.90;99.90
5276;DHT22;2661;50.786;12.728;2023-09-12T07:47:43;18.00;99.90
5276;DHT22;2661;50.786;12.728;2023-09-12T07:50:10;18.10;99.90
5276;DHT22;2661;50.786;12.728;2023-09-12T07:52:36;18.10;99.90
5276;DHT22;2661;50.786;12.728;2023-09-12T07:55:03;18.20;99.90
5276;DHT22;2661;50.786;12.728;2023-09-12T07:57:30;18.30;99.90
5276;DHT22;2661;50.786;12.728;2023-09-12T07:59:57;18.30;99.90
5276;DHT22;2661;50.786;12.728;2023-09-12T08:02:24;18.40;99.90
5276;DHT22;2661;50.786;12.728;2023-09-12T08:04:50;18.50;99.90
5276;DHT22;2661;50.786;12.728;2023-09-12T08:07:17;18.60;99.90
5276;DHT22;2661;50.786;12.728;2023-09-12T08:09:51;18.70;99.90
5276;DHT22;2661;50.786;12.728;2023-09-12T08:12:19;18.70;99.90
5276;DHT22;2661;50.786;12.728;2023-09-12T08:14:46;18.80;99.90
5276;DHT22;2661;50.786;12.728;2023-09-12T08:17:13;18.80;99.90
5276;DHT22;2661;50.786;12.728;2023-09-12T08:19:40;18.80;1.00
5276;DHT22;2661;50.786;12.728;2023-09-12T08:22:07;18.90;1.00
5276;DHT22;2661;50.786;12.728;2023-09-12T08:24:34;18.90;1.00
5276;DHT22;2661;50.786;12.728;2023-09-12T08:27:01;19.00;1.00
5276;DHT22;2661;50.786;12.728;2023-09-12T08:29:28;19.00;1.00
5276;DHT22;2661;50.786;12.728;2023-09-12T08:31:55;19.00;1.00
5276;DHT22;2661;50.786;12.728;2023-09-12T08:34:21;19.10;99.90
5276;DHT22;2661;50.786;12.728;2023-09-12T08:36:48;19.20;1.00
5276;DHT22;2661;50.786;12.728;2023-09-12T08:39:16;19.20;1.00
5276;DHT22;2661;50.786;12.728;2023-09-12T08:41:43;19.30;99.90
5276;DHT22;2661;50.786;12.728;2023-09-12T08:44:09;19.40;1.00
5276;DHT22;2661;50.786;12.728;2023-09-12T08:46:36;19.40;1.00
5276;DHT22;2661;50.786;12.728;2023-09-12T08:49:04;19.50;99.90
5276;DHT22;2661;50.786;12.728;2023-09-12T08:51:31;19.70;99.90
5276;DHT22;2661;50.786;12.728;2023-09-12T08:53:58;19.80;99.90
5276;DHT22;2661;50.786;12.728;2023-09-12T08:56:26;20.00;1.00
5276;DHT22;2661;50.786;12.728;2023-09-12T08:58:53;20.10;1.00
5276;DHT22;2661;50.786;12.728;2023-09-12T09:01:20;20.10;1.00
5276;DHT22;2661;50.786;12.728;2023-09-12T09:03:47;20.10;1.00
5276;DHT22;2661;50.786;12.728;2023-09-12T09:06:14;20.20;1.00
5276;DHT22;2661;50.786;12.728;2023-09-12T09:08:42;20.30;1.00
5276;DHT22;2661;50.786;12.728;2023-09-12T09:11:09;20.40;1.00
5276;DHT22;2661;50.786;12.728;2023-09-12T09:13:37;20.40;1.00
5276;DHT22;2661;50.786;12.728;2023-09-12T09:16:16;20.40;1.00
5276;DHT22;2661;50.786;12.728;2023-09-12T09:18:51;20.50;1.00
5276;DHT22;2661;50.786;12.728;2023-09-12T09:21:18;20.50;1.00
5276;DHT22;2661;50.786;12.728;2023-09-12T09:23:46;20.60;1.00
5276;DHT22;2661;50.786;12.728;2023-09-12T09:26:13;20.80;1.00
5276;DHT22;2661;50.786;12.728;2023-09-12T09:28:40;20.90;1.00
5276;DHT22;2661;50.786;12.728;2023-09-12T09:31:09;21.00;1.00
5276;DHT22;2661;50.786;12.728;2023-09-12T09:33:36;21.20;1.00
5276;DHT22;2661;50.786;12.728;2023-09-12T09:36:03;21.40;1.00
5276;DHT22;2661;50.786;12.728;2023-09-12T09:38:30;21.50;1.00
5276;DHT22;2661;50.786;12.728;2023-09-12T09:40:57;21.60;1.00
5276;DHT22;2661;50.786;12.728;2023-09-12T09:43:24;21.60;1.00
5276;DHT22;2661;50.786;12.728;2023-09-12T09:45:51;21.70;1.00
5276;DHT22;2661;50.786;12.728;2023-09-12T09:48:19;21.80;1.00
5276;DHT22;2661;50.786;12.728;2023-09-12T09:50:46;21.80;1.00
5276;DHT22;2661;50.786;12.728;2023-09-12T09:53:12;21.90;1.00
5276;DHT22;2661;50.786;12.728;2023-09-12T09:55:39;21.90;1.00
5276;DHT22;2661;50.786;12.728;2023-09-12T09:58:06;21.90;1.00
5276;DHT22;2661;50.786;12.728;2023-09-12T10:00:33;21.90;1.00
5276;DHT22;2661;50.786;12.728;2023-09-12T10:03:01;22.00;1.00
5276;DHT22;2661;50.786;12.728;2023-09-12T10:05:31;22.00;1.00
5276;DHT22;2661;50.786;12.728;2023-09-12T10:07:58;21.90;1.00
5276;DHT22;2661;50.786;12.728;2023-09-12T10:10:25;21.90;1.00
5276;DHT22;2661;50.786;12.728;2023-09-12T10:12:54;21.90;1.00
5276;DHT22;2661;50.786;12.728;2023-09-12T10:15:22;22.00;99.90
5276;DHT22;2661;50.786;12.728;2023-09-12T10:17:59;21.90;1.00
5276;DHT22;2661;50.786;12.728;2023-09-12T10:20:37;21.90;1.00
5276;DHT22;2661;50.786;12.728;2023-09-12T10:23:06;21.90;99.90
5276;DHT22;2661;50.786;12.728;2023-09-12T10:25:35;21.90;99.90
5276;DHT22;2661;50.786;12.728;2023-09-12T10:28:05;22.00;99.90
5276;DHT22;2661;50.786;12.728;2023-09-12T10:30:32;22.00;99.90
5276;DHT22;2661;50.786;12.728;2023-09-12T10:33:03;22.10;99.90
5276;DHT22;2661;50.786;12.728;2023-09-12T10:35:31;22.30;99.90
5276;DHT22;2661;50.786;12.728;2023-09-12T10:38:02;22.50;99.90
5276;DHT22;2661;50.786;12.728;2023-09-12T10:40:36;22.70;1.00
5276;DHT22;2661;50.786;12.728;2023-09-12T10:43:09;22.70;99.90
5276;DHT22;2661;50.786;12.728;2023-09-12T10:45:36;22.80;99.90
5276;DHT22;2661;50.786;12.728;2023-09-12T10:48:03;22.80;1.00
5276;DHT22;2661;50.786;12.728;2023-09-12T10:50:30;22.80;1.00
5276;DHT22;2661;50.786;12.728;2023-09-12T10:53:08;22.80;1.00
5276;DHT22;2661;50.786;12.728;2023-09-12T10:55:34;22.80;1.00
5276;DHT22;2661;50.786;12.728;2023-09-12T10:58:08;22.70;1.00
5276;DHT22;2661;50.786;12.728;2023-09-12T11:00:36;22.70;99.90
5276;DHT22;2661;50.786;12.728;2023-09-12T11:05:51;22.70;1.00
5276;DHT22;2661;50.786;12.728;2023-09-12T11:08:19;22.70;1.00
5276;DHT22;2661;50.786;12.728;2023-09-12T11:13:37;22.50;1.00
5276;DHT22;2661;50.786;12.728;2023-09-12T11:16:11;22.50;1.00
5276;DHT22;2661;50.786;12.728;2023-09-12T11:21:32;22.70;1.00
5276;DHT22;2661;50.786;12.728;2023-09-12T11:23:59;22.90;1.00
5276;DHT22;2661;50.786;12.728;2023-09-12T11:26:26;23.00;1.00
5276;DHT22;2661;50.786;12.728;2023-09-12T11:28:53;23.00;1.00
5276;DHT22;2661;50.786;12.728;2023-09-12T11:31:27;23.10;1.00
5276;DHT22;2661;50.786;12.728;2023-09-12T11:33:54;23.10;1.00
5276;DHT22;2661;50.786;12.728;2023-09-12T11:36:21;23.00;1.00
5276;DHT22;2661;50.786;12.728;2023-09-12T11:38:51;22.90;1.00
5276;DHT22;2661;50.786;12.728;2023-09-12T11:44:03;22.80;1.00
5276;DHT22;2661;50.786;12.728;2023-09-12T11:46:30;22.80;1.00
5276;DHT22;2661;50.786;12.728;2023-09-12T11:48:57;22.80;1.00
5276;DHT22;2661;50.786;12.728;2023-09-12T11:51:27;22.80;1.00
5276;DHT22;2661;50.786;12.728;2023-09-12T11:53:53;22.80;1.00
5276;DHT22;2661;50.786;12.728;2023-09-12T11:56:21;23.00;1.00
5276;DHT22;2661;50.786;12.728;2023-09-12T11:58:49;23.20;1.00
5276;DHT22;2661;50.786;12.728;2023-09-12T12:01:15;23.20;1.00
5276;DHT22;2661;50.786;12.728;2023-09-12T12:03:42;23.20;1.00
5276;DHT22;2661;50.786;12.728;2023-09-12T12:06:10;23.20;1.00
5276;DHT22;2661;50.786;12.728;2023-09-12T12:08:37;23.10;1.00
5276;DHT22;2661;50.786;12.728;2023-09-12T12:11:03;23.00;1.00
5276;DHT22;2661;50.786;12.728;2023-09-12T12:13:30;23.10;1.00
5276;DHT22;2661;50.786;12.728;2023-09-12T12:15:59;23.10;1.00
5276;DHT22;2661;50.786;12.728;2023-09-12T12:18:26;23.10;1.00
5276;DHT22;2661;50.786;12.728;2023-09-12T12:20:53;23.10;1.00
5276;DHT22;2661;50.786;12.728;2023-09-12T12:23:20;23.10;1.00
5276;DHT22;2661;50.786;12.728;2023-09-12T12:25:46;22.90;1.00
5276;DHT22;2661;50.786;12.728;2023-09-12T12:28:13;22.90;1.00
5276;DHT22;2661;50.786;12.728;2023-09-12T12:30:42;22.90;1.00
5276;DHT22;2661;50.786;12.728;2023-09-12T12:33:09;23.00;1.00
5276;DHT22;2661;50.786;12.728;2023-09-12T12:36:03;23.10;1.00
5276;DHT22;2661;50.786;12.728;2023-09-12T12:38:33;23.10;1.00
5276;DHT22;2661;50.786;12.728;2023-09-12T12:41:01;23.10;1.00
5276;DHT22;2661;50.786;12.728;2023-09-12T12:43:28;23.20;1.00
5276;DHT22;2661;50.786;12.728;2023-09-12T12:45:56;23.20;1.00
5276;DHT22;2661;50.786;12.728;2023-09-12T12:48:33;23.30;1.00
5276;DHT22;2661;50.786;12.728;2023-09-12T12:51:12;23.30;1.00
5276;DHT22;2661;50.786;12.728;2023-09-12T12:56:19;23.60;1.00
5276;DHT22;2661;50.786;12.728;2023-09-12T12:58:47;23.60;1.00
5276;DHT22;2661;50.786;12.728;2023-09-12T13:01:14;23.60;1.00
5276;DHT22;2661;50.786;12.728;2023-09-12T13:03:41;23.70;1.00
5276;DHT22;2661;50.786;12.728;2023-09-12T13:06:09;23.70;1.00
5276;DHT22;2661;50.786;12.728;2023-09-12T13:08:43;23.80;1.00
5276;DHT22;2661;50.786;12.728;2023-09-12T13:11:10;23.90;1.00
5276;DHT22;2661;50.786;12.728;2023-09-12T13:13:39;23.90;1.00
5276;DHT22;2661;50.786;12.728;2023-09-12T13:16:08;24.00;1.00
5276;DHT22;2661;50.786;12.728;2023-09-12T13:18:38;24.00;1.00
5276;DHT22;2661;50.786;12.728;2023-09-12T13:21:05;24.10;1.00
5276;DHT22;2661;50.786;12.728;2023-09-12T13:23:36;24.10;1.00
5276;DHT22;2661;50.786;12.728;2023-09-12T13:26:03;24.20;1.00
5276;DHT22;2661;50.786;12.728;2023-09-12T13:28:30;24.20;1.00
5276;DHT22;2661;50.786;12.728;2023-09-12T13:30:56;24.30;1.00
5276;DHT22;2661;50.786;12.728;2023-09-12T13:33:26;24.30;1.00
5276;DHT22;2661;50.786;12.728;2023-09-12T13:35:53;24.30;1.00
5276;DHT22;2661;50.786;12.728;2023-09-12T13:38:19;24.30;1.00
5276;DHT22;2661;50.786;12.728;2023-09-12T13:40:46;24.20;1.00
5276;DHT22;2661;50.786;12.728;2023-09-12T13:43:13;24.20;1.00
5276;DHT22;2661;50.786;12.728;2023-09-12T13:45:40;24.20;1.00
5276;DHT22;2661;50.786;12.728;2023-09-12T13:48:07;24.10;1.00
5276;DHT22;2661;50.786;12.728;2023-09-12T13:50:34;24.20;1.00
5276;DHT22;2661;50.786;12.728;2023-09-12T13:53:02;24.20;1.00
5276;DHT22;2661;50.786;12.728;2023-09-12T13:55:35;24.30;1.00
5276;DHT22;2661;50.786;12.728;2023-09-12T13:58:22;24.30;1.00
5276;DHT22;2661;50.786;12.728;2023-09-12T14:00:50;24.40;1.00
5276;DHT22;2661;50.786;12.728;2023-09-12T14:03:17;24.40;1.00
5276;DHT22;2661;50.786;12.728;2023-09-12T14:05:44;24.30;1.00
5276;DHT22;2661;50.786;12.728;2023-09-12T14:08:12;24.40;1.00
5276;DHT22;2661;50.786;12.728;2023-09-12T14:10:38;24.60;1.00
5276;DHT22;2661;50.786;12.728;2023-09-12T14:13:07;24.70;1.00
5276;DHT22;2661;50.786;12.728;2023-09-12T14:15:37;24.70;1.00
5276;DHT22;2661;50.786;12.728;2023-09-12T14:18:04;24.80;1.00
5276;DHT22;2661;50.786;12.728;2023-09-12T14:20:31;24.90;1.00
5276;DHT22;2661;50.786;12.728;2023-09-12T14:22:58;24.80;1.00
5276;DHT22;2661;50.786;12.728;2023-09-12T14:25:25;24.90;1.00
5276;DHT22;2661;50.786;12.728;2023-09-12T14:27:53;25.00;1.00
5276;DHT22;2661;50.786;12.728;2023-09-12T14:30:20;25.20;1.00
5276;DHT22;2661;50.786;12.728;2023-09-12T14:32:49;25.30;1.00
5276;DHT22;2661;50.786;12.728;2023-09-12T14:35:16;25.30;1.00
5276;DHT22;2661;50.786;12.728;2023-09-12T14:37:43;25.40;1.00
5276;DHT22;2661;50.786;12.728;2023-09-12T14:40:10;25.40;1.00
5276;DHT22;2661;50.786;12.728;2023-09-12T14:42:37;25.50;1.00
5276;DHT22;2661;50.786;12.728;2023-09-12T14:45:05;25.60;1.00
5276;DHT22;2661;50.786;12.728;2023-09-12T14:47:32;25.70;1.00
5276;DHT22;2661;50.786;12.728;2023-09-12T14:49:59;25.80;1.00
5276;DHT22;2661;50.786;12.728;2023-09-12T14:52:26;25.80;1.00
5276;DHT22;2661;50.786;12.728;2023-09-12T14:54:56;25.80;1.00
5276;DHT22;2661;50.786;12.728;2023-09-12T14:57:25;25.70;1.00
5276;DHT22;2661;50.786;12.728;2023-09-12T14:59:52;25.70;1.00
5276;DHT22;2661;50.786;12.728;2023-09-12T15:02:19;25.70;1.00
5276;DHT22;2661;50.786;12.728;2023-09-12T15:04:46;25.70;1.00
5276;DHT22;2661;50.786;12.728;2023-09-12T15:07:12;25.60;1.00
5276;DHT22;2661;50.786;12.728;2023-09-12T15:09:39;25.70;1.00
5276;DHT22;2661;50.786;12.728;2023-09-12T15:12:06;25.70;1.00
5276;DHT22;2661;50.786;12.728;2023-09-12T15:14:34;25.60;1.00
5276;DHT22;2661;50.786;12.728;2023-09-12T15:17:00;25.60;1.00
5276;DHT22;2661;50.786;12.728;2023-09-12T15:19:27;25.50;1.00
5276;DHT22;2661;50.786;12.728;2023-09-12T15:21:54;25.50;1.00
5276;DHT22;2661;50.786;12.728;2023-09-12T15:24:21;25.40;1.00
5276;DHT22;2661;50.786;12.728;2023-09-12T15:26:48;25.30;1.00
5276;DHT22;2661;50.786;12.728;2023-09-12T15:29:15;25.20;1.00
5276;DHT22;2661;50.786;12.728;2023-09-12T15:31:41;25.20;1.00
5276;DHT22;2661;50.786;12.728;2023-09-12T15:34:08;25.20;1.00
5276;DHT22;2661;50.786;12.728;2023-09-12T15:36:36;25.10;1.00
5276;DHT22;2661;50.786;12.728;2023-09-12T15:39:06;25.10;1.00
5276;DHT22;2661;50.786;12.728;2023-09-12T15:41:32;25.00;1.00
5276;DHT22;2661;50.786;12.728;2023-09-12T15:43:59;25.00;1.00
5276;DHT22;2661;50.786;12.728;2023-09-12T15:46:40;25.10;1.00
5276;DHT22;2661;50.786;12.728;2023-09-12T15:49:07;25.00;1.00
5276;DHT22;2661;50.786;12.728;2023-09-12T15:51:34;25.00;1.00
5276;DHT22;2661;50.786;12.728;2023-09-12T15:54:00;25.00;1.00
5276;DHT22;2661;50.786;12.728;2023-09-12T15:56:27;25.00;1.00
5276;DHT22;2661;50.786;12.728;2023-09-12T15:58:54;25.00;1.00
5276;DHT22;2661;50.786;12.728;2023-09-12T16:01:22;24.90;1.00
5276;DHT22;2661;50.786;12.728;2023-09-12T16:03:49;24.80;1.00
5276;DHT22;2661;50.786;12.728;2023-09-12T16:06:16;24.80;1.00
5276;DHT22;2661;50.786;12.728;2023-09-12T16:08:43;24.80;1.00
5276;DHT22;2661;50.786;12.728;2023-09-12T16:11:09;24.80;1.00
5276;DHT22;2661;50.786;12.728;2023-09-12T16:13:36;24.80;1.00
5276;DHT22;2661;50.786;12.728;2023-09-12T16:16:03;24.70;1.00
5276;DHT22;2661;50.786;12.728;2023-09-12T16:18:30;24.70;1.00